sensor_id;sensor_type;location;lat;lon;timestamp;P1;durP1;ratioP1;P2;durP2;ratioP2
67508;SDS011;54354;44.724;11.284;2022-07-25T00:01:25;4.93;;;4.38;;
67508;SDS011;54354;44.724;11.284;2022-07-25T00:03:51;7.22;;;4.53;;
67508;SDS011;54354;44.724;11.284;2022-07-25T00:06:16;10.82;;;5.30;;
67508;SDS011;54354;44.724;11.284;2022-07-25T00:08:42;9.13;;;4.90;;
67508;SDS011;54354;44.724;11.284;2022-07-25T00:11:07;9.15;;;5.00;;
67508;SDS011;54354;44.724;11.284;2022-07-25T00:13:33;6.90;;;4.55;;
67508;SDS011;54354;44.724;11.284;2022-07-25T00:15:58;8.48;;;4.68;;
67508;SDS011;54354;44.724;11.284;2022-07-25T00:18:24;6.13;;;4.55;;
67508;SDS011;54354;44.724;11.284;2022-07-25T00:20:49;9.00;;;4.53;;
67508;SDS011;54354;44.724;11.284;2022-07-25T00:23:15;10.63;;;4.95;;
67508;SDS011;54354;44.724;11.284;2022-07-25T00:25:40;11.90;;;5.22;;
67508;SDS011;54354;44.724;11.284;2022-07-25T00:28:06;8.45;;;4.85;;
67508;SDS011;54354;44.724;11.284;2022-07-25T00:30:31;6.95;;;4.80;;
67508;SDS011;54354;44.724;11.284;2022-07-25T00:32:57;7.88;;;4.72;;
67508;SDS011;54354;44.724;11.284;2022-07-25T00:35:22;8.00;;;4.80;;
67508;SDS011;54354;44.724;11.284;2022-07-25T00:37:48;9.80;;;4.88;;
67508;SDS011;54354;44.724;11.284;2022-07-25T00:40:13;7.53;;;5.00;;
67508;SDS011;54354;44.724;11.284;2022-07-25T00:42:39;11.57;;;5.18;;
67508;SDS011;54354;44.724;11.284;2022-07-25T00:45:04;11.40;;;5.80;;
67508;SDS011;54354;44.724;11.284;2022-07-25T00:47:30;7.40;;;5.20;;
67508;SDS011;54354;44.724;11.284;2022-07-25T00:49:56;10.73;;;5.60;;
67508;SDS011;54354;44.724;11.284;2022-07-25T00:52:21;8.65;;;5.13;;
67508;SDS011;54354;44.724;11.284;2022-07-25T00:54:48;11.57;;;5.80;;
67508;SDS011;54354;44.724;11.284;2022-07-25T00:57:14;9.00;;;5.32;;
67508;SDS011;54354;44.724;11.284;2022-07-25T00:59:40;9.23;;;5.60;;
67508;SDS011;54354;44.724;11.284;2022-07-25T01:02:05;7.35;;;5.38;;
67508;SDS011;54354;44.724;11.284;2022-07-25T01:04:31;9.20;;;5.63;;
67508;SDS011;54354;44.724;11.284;2022-07-25T01:06:56;12.55;;;5.28;;
67508;SDS011;54354;44.724;11.284;2022-07-25T01:09:22;8.25;;;5.38;;
67508;SDS011;54354;44.724;11.284;2022-07-25T01:11:48;7.07;;;5.20;;
67508;SDS011;54354;44.724;11.284;2022-07-25T01:14:13;11.65;;;5.32;;
67508;SDS011;54354;44.724;11.284;2022-07-25T01:16:39;9.38;;;5.32;;
67508;SDS011;54354;44.724;11.284;2022-07-25T01:19:05;10.95;;;5.60;;
67508;SDS011;54354;44.724;11.284;2022-07-25T01:21:31;7.60;;;5.72;;
67508;SDS011;54354;44.724;11.284;2022-07-25T01:23:57;7.65;;;5.22;;
67508;SDS011;54354;44.724;11.284;2022-07-25T01:26:23;6.85;;;5.70;;
67508;SDS011;54354;44.724;11.284;2022-07-25T01:28:49;12.32;;;5.88;;
67508;SDS011;54354;44.724;11.284;2022-07-25T01:31:14;9.38;;;6.57;;
67508;SDS011;54354;44.724;11.284;2022-07-25T01:33:40;9.05;;;6.20;;
67508;SDS011;54354;44.724;11.284;2022-07-25T01:36:05;10.73;;;5.95;;
67508;SDS011;54354;44.724;11.284;2022-07-25T01:38:31;9.45;;;6.30;;
67508;SDS011;54354;44.724;11.284;2022-07-25T01:40:56;9.20;;;6.10;;
67508;SDS011;54354;44.724;11.284;2022-07-25T01:43:22;8.20;;;6.63;;
67508;SDS011;54354;44.724;11.284;2022-07-25T01:45:47;9.57;;;6.13;;
67508;SDS011;54354;44.724;11.284;2022-07-25T01:48:13;12.93;;;6.30;;
67508;SDS011;54354;44.724;11.284;2022-07-25T01:50:38;11.15;;;6.45;;
67508;SDS011;54354;44.724;11.284;2022-07-25T01:53:04;8.73;;;6.40;;
67508;SDS011;54354;44.724;11.284;2022-07-25T01:55:29;9.13;;;6.25;;
67508;SDS011;54354;44.724;11.284;2022-07-25T01:57:55;10.77;;;6.38;;
67508;SDS011;54354;44.724;11.284;2022-07-25T02:00:20;10.02;;;6.90;;
67508;SDS011;54354;44.724;11.284;2022-07-25T02:02:46;12.55;;;6.55;;
67508;SDS011;54354;44.724;11.284;2022-07-25T02:05:12;12.48;;;7.32;;
67508;SDS011;54354;44.724;11.284;2022-07-25T02:07:39;13.43;;;7.28;;
67508;SDS011;54354;44.724;11.284;2022-07-25T02:10:05;14.52;;;7.15;;
67508;SDS011;54354;44.724;11.284;2022-07-25T02:12:31;8.95;;;7.30;;
67508;SDS011;54354;44.724;11.284;2022-07-25T02:14:57;8.55;;;6.82;;
67508;SDS011;54354;44.724;11.284;2022-07-25T02:17:22;10.45;;;6.90;;
67508;SDS011;54354;44.724;11.284;2022-07-25T02:19:48;11.77;;;7.28;;
67508;SDS011;54354;44.724;11.284;2022-07-25T02:22:14;14.15;;;7.55;;
67508;SDS011;54354;44.724;11.284;2022-07-25T02:24:39;8.70;;;7.03;;
67508;SDS011;54354;44.724;11.284;2022-07-25T02:27:05;12.95;;;8.02;;
67508;SDS011;54354;44.724;11.284;2022-07-25T02:29:31;8.63;;;7.72;;
67508;SDS011;54354;44.724;11.284;2022-07-25T02:31:57;8.60;;;7.72;;
67508;SDS011;54354;44.724;11.284;2022-07-25T02:34:22;9.43;;;7.40;;
67508;SDS011;54354;44.724;11.284;2022-07-25T02:36:48;9.32;;;8.23;;
67508;SDS011;54354;44.724;11.284;2022-07-25T02:39:13;11.50;;;7.85;;
67508;SDS011;54354;44.724;11.284;2022-07-25T02:41:39;9.38;;;7.85;;
67508;SDS011;54354;44.724;11.284;2022-07-25T02:44:05;11.25;;;7.65;;
67508;SDS011;54354;44.724;11.284;2022-07-25T02:46:30;11.32;;;8.93;;
67508;SDS011;54354;44.724;11.284;2022-07-25T02:48:56;11.23;;;9.00;;
67508;SDS011;54354;44.724;11.284;2022-07-25T02:51:23;16.10;;;8.85;;
67508;SDS011;54354;44.724;11.284;2022-07-25T02:53:48;15.80;;;9.18;;
67508;SDS011;54354;44.724;11.284;2022-07-25T02:56:14;14.38;;;8.43;;
67508;SDS011;54354;44.724;11.284;2022-07-25T02:58:39;12.35;;;8.50;;
67508;SDS011;54354;44.724;11.284;2022-07-25T03:01:05;11.43;;;8.90;;
67508;SDS011;54354;44.724;11.284;2022-07-25T03:03:30;12.10;;;8.90;;
67508;SDS011;54354;44.724;11.284;2022-07-25T03:05:56;13.15;;;9.10;;
67508;SDS011;54354;44.724;11.284;2022-07-25T03:08:21;13.15;;;9.10;;
67508;SDS011;54354;44.724;11.284;2022-07-25T03:10:47;12.38;;;8.95;;
67508;SDS011;54354;44.724;11.284;2022-07-25T03:13:12;17.52;;;9.38;;
67508;SDS011;54354;44.724;11.284;2022-07-25T03:15:38;11.30;;;9.70;;
67508;SDS011;54354;44.724;11.284;2022-07-25T03:18:04;10.25;;;9.20;;
67508;SDS011;54354;44.724;11.284;2022-07-25T03:20:29;13.15;;;8.98;;
67508;SDS011;54354;44.724;11.284;2022-07-25T03:22:54;11.18;;;8.82;;
67508;SDS011;54354;44.724;11.284;2022-07-25T03:25:20;11.90;;;9.07;;
67508;SDS011;54354;44.724;11.284;2022-07-25T03:27:45;16.13;;;9.48;;
67508;SDS011;54354;44.724;11.284;2022-07-25T03:30:11;12.50;;;9.50;;
67508;SDS011;54354;44.724;11.284;2022-07-25T03:32:37;13.35;;;9.48;;
67508;SDS011;54354;44.724;11.284;2022-07-25T03:35:02;14.10;;;9.70;;
67508;SDS011;54354;44.724;11.284;2022-07-25T03:37:29;13.73;;;9.57;;
67508;SDS011;54354;44.724;11.284;2022-07-25T03:39:55;13.95;;;9.07;;
67508;SDS011;54354;44.724;11.284;2022-07-25T03:42:20;14.60;;;8.43;;
67508;SDS011;54354;44.724;11.284;2022-07-25T03:44:48;13.20;;;9.77;;
67508;SDS011;54354;44.724;11.284;2022-07-25T03:47:13;17.92;;;9.70;;
67508;SDS011;54354;44.724;11.284;2022-07-25T03:49:39;16.00;;;8.93;;
67508;SDS011;54354;44.724;11.284;2022-07-25T03:52:04;13.05;;;9.32;;
67508;SDS011;54354;44.724;11.284;2022-07-25T03:54:30;15.77;;;9.75;;
67508;SDS011;54354;44.724;11.284;2022-07-25T03:56:55;17.10;;;9.70;;
67508;SDS011;54354;44.724;11.284;2022-07-25T03:59:21;14.00;;;10.07;;
67508;SDS011;54354;44.724;11.284;2022-07-25T04:01:47;12.13;;;9.70;;
67508;SDS011;54354;44.724;11.284;2022-07-25T04:04:14;14.15;;;10.00;;
67508;SDS011;54354;44.724;11.284;2022-07-25T04:06:40;16.80;;;11.70;;
67508;SDS011;54354;44.724;11.284;2022-07-25T04:09:06;16.08;;;11.27;;
67508;SDS011;54354;44.724;11.284;2022-07-25T04:11:32;16.55;;;11.10;;
67508;SDS011;54354;44.724;11.284;2022-07-25T04:14:00;13.40;;;11.30;;
67508;SDS011;54354;44.724;11.284;2022-07-25T04:16:26;13.32;;;10.10;;
67508;SDS011;54354;44.724;11.284;2022-07-25T04:18:52;14.13;;;10.50;;
67508;SDS011;54354;44.724;11.284;2022-07-25T04:21:18;14.88;;;10.43;;
67508;SDS011;54354;44.724;11.284;2022-07-25T04:23:43;15.18;;;10.95;;
67508;SDS011;54354;44.724;11.284;2022-07-25T04:26:09;16.40;;;11.13;;
67508;SDS011;54354;44.724;11.284;2022-07-25T04:28:34;14.18;;;10.65;;
67508;SDS011;54354;44.724;11.284;2022-07-25T04:31:00;19.02;;;11.45;;
67508;SDS011;54354;44.724;11.284;2022-07-25T04:33:25;16.58;;;11.32;;
67508;SDS011;54354;44.724;11.284;2022-07-25T04:35:51;17.80;;;11.82;;
67508;SDS011;54354;44.724;11.284;2022-07-25T04:38:17;21.80;;;11.52;;
67508;SDS011;54354;44.724;11.284;2022-07-25T04:40:43;15.52;;;10.75;;
67508;SDS011;54354;44.724;11.284;2022-07-25T04:43:08;18.20;;;11.02;;
67508;SDS011;54354;44.724;11.284;2022-07-25T04:45:34;16.52;;;11.65;;
67508;SDS011;54354;44.724;11.284;2022-07-25T04:48:00;15.88;;;11.18;;
67508;SDS011;54354;44.724;11.284;2022-07-25T04:50:27;15.65;;;10.73;;
67508;SDS011;54354;44.724;11.284;2022-07-25T04:52:53;17.33;;;11.30;;
67508;SDS011;54354;44.724;11.284;2022-07-25T04:55:18;18.80;;;10.80;;
67508;SDS011;54354;44.724;11.284;2022-07-25T04:57:45;25.45;;;10.75;;
67508;SDS011;54354;44.724;11.284;2022-07-25T05:00:11;13.20;;;9.90;;
67508;SDS011;54354;44.724;11.284;2022-07-25T05:02:37;17.15;;;10.25;;
67508;SDS011;54354;44.724;11.284;2022-07-25T05:05:03;15.77;;;9.70;;
67508;SDS011;54354;44.724;11.284;2022-07-25T05:07:29;18.65;;;9.80;;
67508;SDS011;54354;44.724;11.284;2022-07-25T05:09:55;15.55;;;9.70;;
67508;SDS011;54354;44.724;11.284;2022-07-25T05:12:20;13.35;;;9.38;;
67508;SDS011;54354;44.724;11.284;2022-07-25T05:14:45;10.93;;;9.70;;
67508;SDS011;54354;44.724;11.284;2022-07-25T05:17:11;19.95;;;9.18;;
67508;SDS011;54354;44.724;11.284;2022-07-25T05:19:37;15.20;;;8.52;;
67508;SDS011;54354;44.724;11.284;2022-07-25T05:22:02;10.70;;;8.95;;
67508;SDS011;54354;44.724;11.284;2022-07-25T05:24:32;10.63;;;8.75;;
67508;SDS011;54354;44.724;11.284;2022-07-25T05:26:59;16.35;;;9.68;;
67508;SDS011;54354;44.724;11.284;2022-07-25T05:29:24;11.70;;;9.00;;
67508;SDS011;54354;44.724;11.284;2022-07-25T05:31:50;19.13;;;9.65;;
67508;SDS011;54354;44.724;11.284;2022-07-25T05:34:15;15.95;;;9.48;;
67508;SDS011;54354;44.724;11.284;2022-07-25T05:36:41;12.73;;;9.30;;
67508;SDS011;54354;44.724;11.284;2022-07-25T05:39:07;12.13;;;8.50;;
67508;SDS011;54354;44.724;11.284;2022-07-25T05:41:32;22.55;;;10.07;;
67508;SDS011;54354;44.724;11.284;2022-07-25T05:43:58;17.27;;;10.13;;
67508;SDS011;54354;44.724;11.284;2022-07-25T05:46:23;15.50;;;9.90;;
67508;SDS011;54354;44.724;11.284;2022-07-25T05:48:49;13.63;;;9.43;;
67508;SDS011;54354;44.724;11.284;2022-07-25T05:51:14;13.88;;;9.13;;
67508;SDS011;54354;44.724;11.284;2022-07-25T05:53:40;11.65;;;8.52;;
67508;SDS011;54354;44.724;11.284;2022-07-25T05:56:06;17.88;;;9.68;;
67508;SDS011;54354;44.724;11.284;2022-07-25T05:58:31;15.70;;;10.23;;
67508;SDS011;54354;44.724;11.284;2022-07-25T06:00:57;12.25;;;9.75;;
67508;SDS011;54354;44.724;11.284;2022-07-25T06:03:23;15.77;;;10.90;;
67508;SDS011;54354;44.724;11.284;2022-07-25T06:05:48;15.95;;;9.82;;
67508;SDS011;54354;44.724;11.284;2022-07-25T06:08:14;11.77;;;8.10;;
67508;SDS011;54354;44.724;11.284;2022-07-25T06:10:39;15.95;;;10.05;;
67508;SDS011;54354;44.724;11.284;2022-07-25T06:13:05;16.50;;;11.73;;
67508;SDS011;54354;44.724;11.284;2022-07-25T06:15:31;11.63;;;9.50;;
67508;SDS011;54354;44.724;11.284;2022-07-25T06:17:57;14.65;;;9.43;;
67508;SDS011;54354;44.724;11.284;2022-07-25T06:20:22;13.07;;;9.15;;
67508;SDS011;54354;44.724;11.284;2022-07-25T06:22:48;8.35;;;7.47;;
67508;SDS011;54354;44.724;11.284;2022-07-25T06:25:13;14.65;;;8.93;;
67508;SDS011;54354;44.724;11.284;2022-07-25T06:27:39;10.35;;;8.68;;
67508;SDS011;54354;44.724;11.284;2022-07-25T06:30:06;10.63;;;7.60;;
67508;SDS011;54354;44.724;11.284;2022-07-25T06:32:33;15.35;;;7.72;;
67508;SDS011;54354;44.724;11.284;2022-07-25T06:34:58;8.05;;;6.55;;
67508;SDS011;54354;44.724;11.284;2022-07-25T06:37:24;10.52;;;7.50;;
67508;SDS011;54354;44.724;11.284;2022-07-25T06:39:50;14.23;;;7.93;;
67508;SDS011;54354;44.724;11.284;2022-07-25T06:42:16;14.95;;;7.93;;
67508;SDS011;54354;44.724;11.284;2022-07-25T06:44:41;12.60;;;7.53;;
67508;SDS011;54354;44.724;11.284;2022-07-25T06:47:07;7.43;;;6.53;;
67508;SDS011;54354;44.724;11.284;2022-07-25T06:49:40;8.88;;;6.57;;
67508;SDS011;54354;44.724;11.284;2022-07-25T06:52:06;9.30;;;7.07;;
67508;SDS011;54354;44.724;11.284;2022-07-25T06:54:32;11.85;;;7.57;;
67508;SDS011;54354;44.724;11.284;2022-07-25T06:56:57;6.78;;;5.95;;
67508;SDS011;54354;44.724;11.284;2022-07-25T06:59:23;7.97;;;5.70;;
67508;SDS011;54354;44.724;11.284;2022-07-25T07:01:49;8.73;;;6.55;;
67508;SDS011;54354;44.724;11.284;2022-07-25T07:04:14;7.85;;;6.18;;
67508;SDS011;54354;44.724;11.284;2022-07-25T07:06:40;8.85;;;5.80;;
67508;SDS011;54354;44.724;11.284;2022-07-25T07:09:05;9.05;;;6.00;;
67508;SDS011;54354;44.724;11.284;2022-07-25T07:11:32;8.98;;;5.97;;
67508;SDS011;54354;44.724;11.284;2022-07-25T07:13:58;6.85;;;6.22;;
67508;SDS011;54354;44.724;11.284;2022-07-25T07:16:27;5.95;;;5.35;;
67508;SDS011;54354;44.724;11.284;2022-07-25T07:18:52;9.38;;;5.88;;
67508;SDS011;54354;44.724;11.284;2022-07-25T07:21:18;8.80;;;6.18;;
67508;SDS011;54354;44.724;11.284;2022-07-25T07:23:43;9.30;;;6.15;;
67508;SDS011;54354;44.724;11.284;2022-07-25T07:26:09;7.38;;;6.03;;
67508;SDS011;54354;44.724;11.284;2022-07-25T07:28:34;8.63;;;6.28;;
67508;SDS011;54354;44.724;11.284;2022-07-25T07:31:00;9.02;;;6.15;;
67508;SDS011;54354;44.724;11.284;2022-07-25T07:33:25;8.25;;;5.70;;
67508;SDS011;54354;44.724;11.284;2022-07-25T07:35:51;7.78;;;6.15;;
67508;SDS011;54354;44.724;11.284;2022-07-25T07:38:16;9.07;;;5.72;;
67508;SDS011;54354;44.724;11.284;2022-07-25T07:40:42;7.95;;;5.63;;
67508;SDS011;54354;44.724;11.284;2022-07-25T07:43:08;7.82;;;5.85;;
67508;SDS011;54354;44.724;11.284;2022-07-25T07:45:35;8.35;;;6.20;;
67508;SDS011;54354;44.724;11.284;2022-07-25T07:48:00;9.98;;;6.57;;
67508;SDS011;54354;44.724;11.284;2022-07-25T07:50:26;7.72;;;5.90;;
67508;SDS011;54354;44.724;11.284;2022-07-25T07:52:53;10.20;;;6.13;;
67508;SDS011;54354;44.724;11.284;2022-07-25T07:55:19;6.32;;;5.63;;
67508;SDS011;54354;44.724;11.284;2022-07-25T07:58:04;6.72;;;5.93;;
67508;SDS011;54354;44.724;11.284;2022-07-25T08:00:31;6.78;;;5.97;;
67508;SDS011;54354;44.724;11.284;2022-07-25T08:03:00;9.00;;;6.13;;
67508;SDS011;54354;44.724;11.284;2022-07-25T08:05:28;8.05;;;5.78;;
67508;SDS011;54354;44.724;11.284;2022-07-25T08:07:55;11.23;;;5.55;;
67508;SDS011;54354;44.724;11.284;2022-07-25T08:10:26;8.73;;;5.75;;
67508;SDS011;54354;44.724;11.284;2022-07-25T08:12:53;7.80;;;5.88;;
67508;SDS011;54354;44.724;11.284;2022-07-25T08:15:19;6.13;;;5.30;;
67508;SDS011;54354;44.724;11.284;2022-07-25T08:17:45;8.23;;;5.90;;
67508;SDS011;54354;44.724;11.284;2022-07-25T08:20:11;6.32;;;5.72;;
67508;SDS011;54354;44.724;11.284;2022-07-25T08:22:41;7.45;;;6.05;;
67508;SDS011;54354;44.724;11.284;2022-07-25T08:25:09;9.38;;;5.32;;
67508;SDS011;54354;44.724;11.284;2022-07-25T08:27:38;6.40;;;5.68;;
67508;SDS011;54354;44.724;11.284;2022-07-25T08:30:04;7.47;;;5.65;;
67508;SDS011;54354;44.724;11.284;2022-07-25T08:32:31;8.70;;;5.78;;
67508;SDS011;54354;44.724;11.284;2022-07-25T08:34:57;10.45;;;5.50;;
67508;SDS011;54354;44.724;11.284;2022-07-25T08:37:23;9.30;;;5.50;;
67508;SDS011;54354;44.724;11.284;2022-07-25T08:39:49;6.63;;;5.75;;
67508;SDS011;54354;44.724;11.284;2022-07-25T08:42:19;8.30;;;6.18;;
67508;SDS011;54354;44.724;11.284;2022-07-25T08:44:48;7.03;;;5.80;;
67508;SDS011;54354;44.724;11.284;2022-07-25T08:47:21;8.43;;;5.57;;
67508;SDS011;54354;44.724;11.284;2022-07-25T08:49:46;7.15;;;5.72;;
67508;SDS011;54354;44.724;11.284;2022-07-25T08:52:13;10.68;;;5.70;;
67508;SDS011;54354;44.724;11.284;2022-07-25T08:54:39;10.02;;;5.93;;
67508;SDS011;54354;44.724;11.284;2022-07-25T08:57:05;6.63;;;5.82;;
67508;SDS011;54354;44.724;11.284;2022-07-25T08:59:30;11.75;;;6.35;;
67508;SDS011;54354;44.724;11.284;2022-07-25T09:01:57;7.40;;;6.25;;
67508;SDS011;54354;44.724;11.284;2022-07-25T09:04:26;9.95;;;6.22;;
67508;SDS011;54354;44.724;11.284;2022-07-25T09:06:57;6.47;;;5.82;;
67508;SDS011;54354;44.724;11.284;2022-07-25T09:09:31;8.35;;;5.93;;
67508;SDS011;54354;44.724;11.284;2022-07-25T09:12:03;7.85;;;5.93;;
67508;SDS011;54354;44.724;11.284;2022-07-25T09:14:29;6.85;;;5.85;;
67508;SDS011;54354;44.724;11.284;2022-07-25T09:16:55;9.38;;;6.75;;
67508;SDS011;54354;44.724;11.284;2022-07-25T09:19:22;7.75;;;6.15;;
67508;SDS011;54354;44.724;11.284;2022-07-25T09:22:05;7.25;;;6.28;;
67508;SDS011;54354;44.724;11.284;2022-07-25T09:24:32;11.20;;;6.20;;
67508;SDS011;54354;44.724;11.284;2022-07-25T09:27:06;6.88;;;6.28;;
67508;SDS011;54354;44.724;11.284;2022-07-25T09:29:34;8.40;;;6.50;;
67508;SDS011;54354;44.724;11.284;2022-07-25T09:32:00;12.52;;;6.35;;
67508;SDS011;54354;44.724;11.284;2022-07-25T09:34:38;7.00;;;6.28;;
67508;SDS011;54354;44.724;11.284;2022-07-25T09:37:09;7.30;;;6.47;;
67508;SDS011;54354;44.724;11.284;2022-07-25T09:39:46;7.38;;;6.20;;
67508;SDS011;54354;44.724;11.284;2022-07-25T09:44:43;9.95;;;6.30;;
67508;SDS011;54354;44.724;11.284;2022-07-25T09:47:13;7.22;;;6.53;;
67508;SDS011;54354;44.724;11.284;2022-07-25T09:49:41;8.65;;;6.35;;
67508;SDS011;54354;44.724;11.284;2022-07-25T09:52:08;8.05;;;6.10;;
67508;SDS011;54354;44.724;11.284;2022-07-25T09:54:36;9.20;;;6.30;;
67508;SDS011;54354;44.724;11.284;2022-07-25T09:57:02;7.10;;;6.50;;
67508;SDS011;54354;44.724;11.284;2022-07-25T09:59:28;7.53;;;6.30;;
67508;SDS011;54354;44.724;11.284;2022-07-25T10:01:55;11.00;;;6.80;;
67508;SDS011;54354;44.724;11.284;2022-07-25T10:07:11;6.60;;;6.00;;
67508;SDS011;54354;44.724;11.284;2022-07-25T10:09:44;6.65;;;6.05;;
67508;SDS011;54354;44.724;11.284;2022-07-25T10:12:17;8.73;;;6.13;;
67508;SDS011;54354;44.724;11.284;2022-07-25T10:15:02;6.68;;;6.07;;
67508;SDS011;54354;44.724;11.284;2022-07-25T10:17:35;7.60;;;6.63;;
67508;SDS011;54354;44.724;11.284;2022-07-25T10:20:01;6.28;;;5.70;;
67508;SDS011;54354;44.724;11.284;2022-07-25T10:22:40;8.30;;;5.93;;
67508;SDS011;54354;44.724;11.284;2022-07-25T10:25:13;7.30;;;6.13;;
67508;SDS011;54354;44.724;11.284;2022-07-25T10:27:42;7.07;;;6.18;;
67508;SDS011;54354;44.724;11.284;2022-07-25T10:30:20;10.48;;;6.05;;
67508;SDS011;54354;44.724;11.284;2022-07-25T10:32:54;6.32;;;5.57;;
67508;SDS011;54354;44.724;11.284;2022-07-25T10:35:20;6.78;;;5.85;;
67508;SDS011;54354;44.724;11.284;2022-07-25T10:37:45;8.52;;;5.88;;
67508;SDS011;54354;44.724;11.284;2022-07-25T10:50:59;7.65;;;5.63;;
67508;SDS011;54354;44.724;11.284;2022-07-25T10:53:27;8.20;;;5.43;;
67508;SDS011;54354;44.724;11.284;2022-07-25T10:55:55;8.82;;;5.78;;
67508;SDS011;54354;44.724;11.284;2022-07-25T10:58:22;10.25;;;5.85;;
67508;SDS011;54354;44.724;11.284;2022-07-25T11:00:48;8.65;;;5.88;;
67508;SDS011;54354;44.724;11.284;2022-07-25T11:03:15;7.30;;;5.63;;
67508;SDS011;54354;44.724;11.284;2022-07-25T11:05:44;5.95;;;5.45;;
67508;SDS011;54354;44.724;11.284;2022-07-25T11:08:12;9.75;;;5.18;;
67508;SDS011;54354;44.724;11.284;2022-07-25T11:10:37;7.47;;;5.57;;
67508;SDS011;54354;44.724;11.284;2022-07-25T11:13:03;6.15;;;5.43;;
67508;SDS011;54354;44.724;11.284;2022-07-25T11:15:29;8.70;;;5.53;;
67508;SDS011;54354;44.724;11.284;2022-07-25T11:17:56;7.15;;;5.82;;
67508;SDS011;54354;44.724;11.284;2022-07-25T11:20:21;9.45;;;5.70;;
67508;SDS011;54354;44.724;11.284;2022-07-25T11:22:50;6.95;;;5.13;;
67508;SDS011;54354;44.724;11.284;2022-07-25T11:25:18;6.70;;;5.70;;
67508;SDS011;54354;44.724;11.284;2022-07-25T11:27:48;8.77;;;5.10;;
67508;SDS011;54354;44.724;11.284;2022-07-25T11:30:20;7.13;;;5.55;;
67508;SDS011;54354;44.724;11.284;2022-07-25T11:32:50;7.72;;;5.70;;
67508;SDS011;54354;44.724;11.284;2022-07-25T11:37:48;5.75;;;5.13;;
67508;SDS011;54354;44.724;11.284;2022-07-25T11:40:15;8.70;;;5.53;;
67508;SDS011;54354;44.724;11.284;2022-07-25T11:42:44;6.00;;;5.38;;
67508;SDS011;54354;44.724;11.284;2022-07-25T11:45:18;6.63;;;5.22;;
67508;SDS011;54354;44.724;11.284;2022-07-25T11:47:46;8.95;;;5.20;;
67508;SDS011;54354;44.724;11.284;2022-07-25T11:50:13;7.70;;;5.50;;
67508;SDS011;54354;44.724;11.284;2022-07-25T11:52:39;8.35;;;5.25;;
67508;SDS011;54354;44.724;11.284;2022-07-25T11:55:15;7.68;;;5.55;;
67508;SDS011;54354;44.724;11.284;2022-07-25T11:57:42;8.18;;;5.93;;
67508;SDS011;54354;44.724;11.284;2022-07-25T12:00:17;7.45;;;5.53;;
67508;SDS011;54354;44.724;11.284;2022-07-25T12:02:45;8.43;;;5.55;;
67508;SDS011;54354;44.724;11.284;2022-07-25T12:05:13;8.57;;;5.53;;
67508;SDS011;54354;44.724;11.284;2022-07-25T12:07:44;11.60;;;5.97;;
67508;SDS011;54354;44.724;11.284;2022-07-25T12:10:14;9.68;;;5.82;;
67508;SDS011;54354;44.724;11.284;2022-07-25T12:12:42;9.43;;;5.75;;
67508;SDS011;54354;44.724;11.284;2022-07-25T12:15:13;9.25;;;5.70;;
67508;SDS011;54354;44.724;11.284;2022-07-25T12:17:40;9.18;;;6.13;;
67508;SDS011;54354;44.724;11.284;2022-07-25T12:20:14;7.43;;;5.65;;
67508;SDS011;54354;44.724;11.284;2022-07-25T12:22:44;7.72;;;5.22;;
67508;SDS011;54354;44.724;11.284;2022-07-25T12:25:11;7.78;;;5.68;;
67508;SDS011;54354;44.724;11.284;2022-07-25T12:27:37;7.90;;;5.80;;
67508;SDS011;54354;44.724;11.284;2022-07-25T12:30:04;7.85;;;5.55;;
67508;SDS011;54354;44.724;11.284;2022-07-25T12:32:30;7.60;;;5.70;;
67508;SDS011;54354;44.724;11.284;2022-07-25T12:34:55;8.68;;;5.50;;
67508;SDS011;54354;44.724;11.284;2022-07-25T12:37:21;10.35;;;5.60;;
67508;SDS011;54354;44.724;11.284;2022-07-25T12:39:47;8.75;;;5.57;;
67508;SDS011;54354;44.724;11.284;2022-07-25T12:42:13;8.80;;;5.28;;
67508;SDS011;54354;44.724;11.284;2022-07-25T12:44:38;6.63;;;5.57;;
67508;SDS011;54354;44.724;11.284;2022-07-25T12:47:04;7.05;;;5.20;;
67508;SDS011;54354;44.724;11.284;2022-07-25T12:49:29;9.98;;;5.65;;
67508;SDS011;54354;44.724;11.284;2022-07-25T12:51:55;9.30;;;5.60;;
67508;SDS011;54354;44.724;11.284;2022-07-25T12:54:21;13.38;;;5.40;;
67508;SDS011;54354;44.724;11.284;2022-07-25T12:56:46;7.72;;;5.40;;
67508;SDS011;54354;44.724;11.284;2022-07-25T12:59:11;6.28;;;5.60;;
67508;SDS011;54354;44.724;11.284;2022-07-25T13:01:37;8.38;;;5.90;;
67508;SDS011;54354;44.724;11.284;2022-07-25T13:04:02;10.00;;;4.90;;
67508;SDS011;54354;44.724;11.284;2022-07-25T13:06:31;6.95;;;5.03;;
67508;SDS011;54354;44.724;11.284;2022-07-25T13:08:59;9.02;;;5.25;;
67508;SDS011;54354;44.724;11.284;2022-07-25T13:11:25;9.88;;;5.18;;
67508;SDS011;54354;44.724;11.284;2022-07-25T13:13:50;16.40;;;5.25;;
67508;SDS011;54354;44.724;11.284;2022-07-25T13:16:16;10.60;;;5.30;;
67508;SDS011;54354;44.724;11.284;2022-07-25T13:18:41;10.20;;;5.68;;
67508;SDS011;54354;44.724;11.284;2022-07-25T13:21:08;7.95;;;4.85;;
67508;SDS011;54354;44.724;11.284;2022-07-25T13:23:34;8.50;;;5.05;;
67508;SDS011;54354;44.724;11.284;2022-07-25T13:26:00;6.00;;;4.85;;
67508;SDS011;54354;44.724;11.284;2022-07-25T13:28:26;8.68;;;5.43;;
67508;SDS011;54354;44.724;11.284;2022-07-25T13:30:52;9.07;;;5.03;;
67508;SDS011;54354;44.724;11.284;2022-07-25T13:33:18;7.82;;;4.95;;
67508;SDS011;54354;44.724;11.284;2022-07-25T13:35:43;7.32;;;5.47;;
67508;SDS011;54354;44.724;11.284;2022-07-25T13:38:09;7.00;;;5.35;;
67508;SDS011;54354;44.724;11.284;2022-07-25T13:40:35;6.00;;;5.50;;
67508;SDS011;54354;44.724;11.284;2022-07-25T13:43:06;9.18;;;4.70;;
67508;SDS011;54354;44.724;11.284;2022-07-25T13:45:32;8.32;;;5.65;;
67508;SDS011;54354;44.724;11.284;2022-07-25T13:47:57;10.27;;;5.05;;
67508;SDS011;54354;44.724;11.284;2022-07-25T13:50:23;6.32;;;5.72;;
67508;SDS011;54354;44.724;11.284;2022-07-25T13:52:48;6.05;;;5.38;;
67508;SDS011;54354;44.724;11.284;2022-07-25T13:55:14;7.13;;;5.90;;
67508;SDS011;54354;44.724;11.284;2022-07-25T13:57:39;10.48;;;5.18;;
67508;SDS011;54354;44.724;11.284;2022-07-25T14:00:05;8.98;;;5.50;;
67508;SDS011;54354;44.724;11.284;2022-07-25T14:02:31;6.45;;;5.65;;
67508;SDS011;54354;44.724;11.284;2022-07-25T14:04:56;7.07;;;5.85;;
67508;SDS011;54354;44.724;11.284;2022-07-25T14:07:22;9.73;;;6.10;;
67508;SDS011;54354;44.724;11.284;2022-07-25T14:09:47;6.47;;;5.88;;
67508;SDS011;54354;44.724;11.284;2022-07-25T14:12:13;6.80;;;6.00;;
67508;SDS011;54354;44.724;11.284;2022-07-25T14:14:38;8.65;;;5.88;;
67508;SDS011;54354;44.724;11.284;2022-07-25T14:17:04;9.23;;;6.82;;
67508;SDS011;54354;44.724;11.284;2022-07-25T14:19:30;7.65;;;5.90;;
67508;SDS011;54354;44.724;11.284;2022-07-25T14:21:56;7.07;;;5.78;;
67508;SDS011;54354;44.724;11.284;2022-07-25T14:24:22;9.15;;;5.72;;
67508;SDS011;54354;44.724;11.284;2022-07-25T14:26:48;8.23;;;5.93;;
67508;SDS011;54354;44.724;11.284;2022-07-25T14:29:13;10.60;;;5.70;;
67508;SDS011;54354;44.724;11.284;2022-07-25T14:31:39;6.68;;;5.88;;
67508;SDS011;54354;44.724;11.284;2022-07-25T14:34:05;6.18;;;5.57;;
67508;SDS011;54354;44.724;11.284;2022-07-25T14:36:31;6.20;;;5.68;;
67508;SDS011;54354;44.724;11.284;2022-07-25T14:38:57;7.03;;;6.28;;
67508;SDS011;54354;44.724;11.284;2022-07-25T14:41:22;6.70;;;6.00;;
67508;SDS011;54354;44.724;11.284;2022-07-25T14:43:48;6.30;;;5.72;;